Time;durP1;ratioP1;P1;durP2;ratioP2;P2;SDS_P1;SDS_P2;PMS_P1;PMS_P2;Temp;Humidity;BMP_temperature;BMP_pressure;BME280_temperature;BME280_humidity;BME280_pressure;Samples;Min_cycle;Max_cycle;Signal;HPM_P1;HPM_P2
2022/08/15 00:01:24;;;;;;;25.77;20.45;;;22.50;99.90;;;;;;5039345;28;20049;-69
2022/08/15 00:03:53;;;;;;;22.63;20.05;;;22.50;99.90;;;;;;5056631;28;20469;-72
2022/08/15 00:06:22;;;;;;;22.60;20.42;;;22.50;99.90;;;;;;5038568;28;20064;-68
2022/08/15 00:08:54;;;;;;;22.77;20.58;;;22.40;99.90;;;;;;5056335;28;20048;-71
2022/08/15 00:11:31;;;;;;;21.63;19.33;;;22.50;99.90;;;;;;5038561;28;20049;-69
2022/08/15 00:14:25;;;;;;;22.27;20.20;;;22.50;99.90;;;;;;5056566;28;20367;-69
2022/08/15 00:16:51;;;;;;;22.33;20.13;;;22.40;99.90;;;;;;5056241;28;20423;-68
2022/08/15 00:19:24;;;;;;;20.63;18.65;;;22.40;99.90;;;;;;5056154;28;20080;-69
2022/08/15 00:21:54;;;;;;;21.02;18.92;;;22.40;99.90;;;;;;5038797;28;20044;-69
2022/08/15 00:24:23;;;;;;;20.73;18.70;;;22.40;99.90;;;;;;5056180;28;20037;-70
2022/08/15 00:26:50;;;;;;;21.20;19.20;;;22.30;99.90;;;;;;5056112;28;20378;-69
2022/08/15 00:29:18;;;;;;;19.20;17.25;;;22.30;99.90;;;;;;5056228;28;20131;-71
2022/08/15 00:31:44;;;;;;;19.13;17.13;;;22.30;99.90;;;;;;5055648;28;20116;-70
2022/08/15 00:34:12;;;;;;;16.40;14.88;;;22.30;99.90;;;;;;5056051;28;20135;-69
2022/08/15 00:36:38;;;;;;;16.75;15.15;;;22.30;99.90;;;;;;5055764;28;20037;-69
2022/08/15 00:39:05;;;;;;;17.42;15.45;;;22.30;99.90;;;;;;5055948;28;20401;-68
2022/08/15 00:41:41;;;;;;;16.10;14.45;;;22.20;99.90;;;;;;5055380;28;20443;-69
2022/08/15 00:44:24;;;;;;;16.20;14.70;;;22.20;99.90;;;;;;5055758;28;20469;-71
2022/08/15 00:46:55;;;;;;;15.13;13.40;;;22.20;99.90;;;;;;5055654;28;20052;-68
2022/08/15 00:49:24;;;;;;;15.15;13.57;;;22.20;99.90;;;;;;5038477;28;20055;-69
2022/08/15 00:51:54;;;;;;;16.80;14.25;;;22.20;99.90;;;;;;5055587;28;20363;-69
2022/08/15 00:54:27;;;;;;;18.45;13.73;;;22.10;99.90;;;;;;5055361;28;20098;-70
2022/08/15 00:57:03;;;;;;;15.00;13.60;;;22.10;99.90;;;;;;5055061;28;20049;-73
2022/08/15 00:59:37;;;;;;;14.40;12.95;;;22.10;99.90;;;;;;5055508;28;20388;-71
2022/08/15 01:02:13;;;;;;;14.63;13.38;;;22.10;99.90;;;;;;5037866;28;20057;-68
2022/08/15 01:04:39;;;;;;;17.23;14.20;;;22.10;99.90;;;;;;5055210;28;20033;-70
2022/08/15 01:07:06;;;;;;;15.82;13.30;;;22.10;99.90;;;;;;5055224;28;20037;-70
2022/08/15 01:09:32;;;;;;;14.80;12.82;;;22.00;99.90;;;;;;5054987;28;20084;-69
2022/08/15 01:12:18;;;;;;;18.58;14.15;;;22.00;99.90;;;;;;5055309;28;20158;-70
2022/08/15 01:14:49;;;;;;;20.00;13.90;;;22.00;99.90;;;;;;5055120;28;20049;-69
2022/08/15 01:17:16;;;;;;;14.43;12.90;;;22.00;99.90;;;;;;5055171;28;20044;-68
2022/08/15 01:19:50;;;;;;;16.10;14.25;;;22.00;99.90;;;;;;5055223;28;20149;-69
2022/08/15 01:22:49;;;;;;;15.05;13.45;;;21.90;99.90;;;;;;5037504;28;20106;-69
2022/08/15 01:25:24;;;;;;;16.08;13.07;;;21.90;99.90;;;;;;5055238;28;20363;-70
2022/08/15 01:27:56;;;;;;;;;;;21.80;99.90;;;;;;5055474;28;20049;-70
2022/08/15 01:30:26;;;;;;;14.52;12.68;;;21.80;99.90;;;;;;5037324;28;19921;-71
2022/08/15 01:32:53;;;;;;;15.57;13.90;;;21.80;99.90;;;;;;5054996;28;20048;-71
2022/08/15 01:35:19;;;;;;;14.75;13.25;;;21.80;99.90;;;;;;5055069;28;20051;-68
2022/08/15 01:37:45;;;;;;;15.27;13.68;;;21.80;99.90;;;;;;5054891;28;20041;-69
2022/08/15 01:40:26;;;;;;;14.65;13.25;;;21.80;99.90;;;;;;5054773;28;20053;-70
2022/08/15 01:42:55;;;;;;;16.13;14.52;;;21.80;99.90;;;;;;5054885;28;20045;-70
2022/08/15 01:45:26;;;;;;;16.15;14.40;;;21.80;99.90;;;;;;5054775;28;20386;-68
2022/08/15 01:47:59;;;;;;;17.02;14.90;;;21.80;99.90;;;;;;5054908;28;20503;-69
2022/08/15 01:50:33;;;;;;;16.10;14.40;;;21.80;99.90;;;;;;5054931;28;20051;-68
2022/08/15 01:53:07;;;;;;;15.90;14.27;;;21.80;99.90;;;;;;5054916;28;20041;-70
2022/08/15 01:55:43;;;;;;;16.25;14.55;;;21.70;99.90;;;;;;5054903;28;20040;-69
2022/08/15 01:58:09;;;;;;;16.50;14.85;;;21.70;99.90;;;;;;5054657;28;20321;-68
2022/08/15 02:00:36;;;;;;;15.80;14.20;;;21.60;99.90;;;;;;5037168;28;20132;-70
2022/08/15 02:03:01;;;;;;;17.23;15.63;;;21.60;99.90;;;;;;5054229;28;20475;-69
2022/08/15 02:05:27;;;;;;;17.38;14.18;;;21.50;99.90;;;;;;5019905;28;20052;-71
2022/08/15 02:07:53;;;;;;;16.27;14.60;;;21.50;99.90;;;;;;5057711;28;20074;-69
2022/08/15 02:10:18;;;;;;;14.50;13.15;;;21.50;99.90;;;;;;5041358;28;20065;-68
2022/08/15 02:12:45;;;;;;;16.38;13.73;;;21.50;99.90;;;;;;5058719;28;20454;-68
2022/08/15 02:15:19;;;;;;;14.48;13.10;;;21.50;99.90;;;;;;5058483;28;20144;-70
2022/08/15 02:17:45;;;;;;;18.38;14.57;;;21.50;99.90;;;;;;5040720;28;20110;-68
2022/08/15 02:20:13;;;;;;;15.73;14.13;;;21.40;99.90;;;;;;5058406;28;20063;-68
2022/08/15 02:22:39;;;;;;;15.25;13.75;;;21.40;99.90;;;;;;5058220;28;20134;-71
2022/08/15 02:25:07;;;;;;;16.35;14.75;;;21.40;99.90;;;;;;5057964;28;20076;-70
2022/08/15 02:27:35;;;;;;;15.68;14.27;;;21.40;99.90;;;;;;5045371;28;20045;-69
2022/08/15 02:30:06;;;;;;;17.95;14.98;;;21.30;99.90;;;;;;5057801;28;20394;-71
2022/08/15 02:32:32;;;;;;;16.92;14.68;;;21.30;99.90;;;;;;5058361;28;20044;-70
2022/08/15 02:34:59;;;;;;;15.70;14.02;;;21.30;99.90;;;;;;5058222;28;20045;-70
2022/08/15 02:37:25;;;;;;;18.95;15.05;;;21.30;99.90;;;;;;5057927;28;20098;-68
2022/08/15 02:39:52;;;;;;;15.98;14.27;;;21.20;99.90;;;;;;5057783;28;20045;-70
2022/08/15 02:42:19;;;;;;;16.90;15.25;;;21.20;99.90;;;;;;5058135;28;20462;-68
2022/08/15 02:44:49;;;;;;;23.45;15.38;;;21.20;99.90;;;;;;5057969;28;20094;-70
2022/08/15 02:47:15;;;;;;;16.85;15.15;;;21.20;99.90;;;;;;5057876;28;20166;-68
2022/08/15 02:49:43;;;;;;;16.17;14.60;;;21.20;99.90;;;;;;5057937;28;20122;-70
2022/08/15 02:52:09;;;;;;;18.23;14.18;;;21.20;99.90;;;;;;5057760;28;20049;-68
2022/08/15 02:54:35;;;;;;;16.27;14.43;;;21.20;99.90;;;;;;5057729;28;20056;-71
2022/08/15 02:57:01;;;;;;;16.70;15.00;;;21.20;99.90;;;;;;5057638;28;20051;-69
2022/08/15 02:59:28;;;;;;;17.42;15.05;;;21.20;99.90;;;;;;5057830;28;20079;-68
2022/08/15 03:01:57;;;;;;;16.50;14.80;;;21.20;99.90;;;;;;5040164;28;20095;-69
2022/08/15 03:04:24;;;;;;;18.77;16.60;;;21.20;99.90;;;;;;5057574;28;20348;-71
2022/08/15 03:06:53;;;;;;;17.70;15.88;;;21.20;99.90;;;;;;5057821;28;20076;-68
2022/08/15 03:09:21;;;;;;;17.05;15.35;;;21.20;99.90;;;;;;5057125;28;20100;-68
2022/08/15 03:11:47;;;;;;;19.23;17.30;;;21.20;99.90;;;;;;5057712;28;20099;-69
2022/08/15 03:14:19;;;;;;;19.13;17.13;;;21.20;99.90;;;;;;5057693;28;20057;-68
2022/08/15 03:16:46;;;;;;;19.70;17.65;;;21.20;99.90;;;;;;5057385;28;20044;-68
2022/08/15 03:19:16;;;;;;;19.30;16.95;;;21.20;99.90;;;;;;5055958;28;20444;-70
2022/08/15 03:21:43;;;;;;;20.00;16.75;;;21.20;99.90;;;;;;5057309;28;20049;-68
2022/08/15 03:24:10;;;;;;;19.02;16.95;;;21.20;99.90;;;;;;5057320;28;20124;-71
2022/08/15 03:26:36;;;;;;;18.73;16.92;;;21.20;99.90;;;;;;5057305;28;20117;-67
2022/08/15 03:29:03;;;;;;;17.63;15.73;;;21.20;99.90;;;;;;5056972;28;20045;-68
2022/08/15 03:31:28;;;;;;;18.33;16.50;;;21.10;99.90;;;;;;5057128;28;20056;-69
2022/08/15 03:33:55;;;;;;;18.08;16.38;;;21.10;99.90;;;;;;5057145;28;20044;-70
2022/08/15 03:36:23;;;;;;;17.80;16.00;;;21.10;99.90;;;;;;5056790;28;20052;-70
2022/08/15 03:38:49;;;;;;;18.27;16.00;;;21.10;99.90;;;;;;5039581;28;20063;-68
2022/08/15 03:41:16;;;;;;;18.73;16.80;;;21.10;99.90;;;;;;5056919;28;20478;-70
2022/08/15 03:43:44;;;;;;;17.85;15.95;;;21.10;99.90;;;;;;5056795;28;20053;-68
2022/08/15 03:46:13;;;;;;;18.85;17.02;;;21.00;99.90;;;;;;5056857;28;20114;-68
2022/08/15 03:48:48;;;;;;;18.45;16.60;;;21.10;99.90;;;;;;5056819;28;20045;-68
2022/08/15 03:51:16;;;;;;;18.90;16.95;;;21.10;99.90;;;;;;5039385;28;20123;-72
2022/08/15 03:53:51;;;;;;;20.90;16.42;;;21.10;99.90;;;;;;5057017;28;20100;-68
2022/08/15 03:56:20;;;;;;;19.75;16.90;;;21.10;99.90;;;;;;5056766;28;20127;-67
2022/08/15 03:58:46;;;;;;;18.98;17.05;;;21.10;99.90;;;;;;5056310;28;20475;-69
2022/08/15 04:01:17;;;;;;;21.00;18.85;;;21.10;99.90;;;;;;5056337;28;20045;-67
2022/08/15 04:03:47;;;;;;;21.15;19.25;;;21.10;99.90;;;;;;5056656;28;20091;-69
2022/08/15 04:06:16;;;;;;;21.38;19.10;;;21.10;99.90;;;;;;5056657;28;20051;-68
2022/08/15 04:08:45;;;;;;;20.67;18.60;;;21.10;99.90;;;;;;5037588;28;20115;-70
2022/08/15 04:11:11;;;;;;;20.35;18.40;;;21.10;99.90;;;;;;5056474;28;20095;-70
2022/08/15 04:13:39;;;;;;;20.10;17.83;;;21.10;99.90;;;;;;5039157;28;20045;-71
2022/08/15 04:16:05;;;;;;;20.33;18.25;;;21.10;99.90;;;;;;5056242;28;20102;-69
2022/08/15 04:18:31;;;;;;;20.63;18.23;;;21.10;99.90;;;;;;5056575;28;20036;-69
2022/08/15 04:21:02;;;;;;;19.05;17.17;;;21.10;99.90;;;;;;5038674;28;20037;-69
2022/08/15 04:23:30;;;;;;;19.40;17.45;;;21.20;99.90;;;;;;5056263;28;20103;-69
2022/08/15 04:25:56;;;;;;;19.00;17.17;;;21.20;99.90;;;;;;5056262;28;20433;-70
2022/08/15 04:28:24;;;;;;;20.05;18.25;;;21.20;99.90;;;;;;5055931;28;20080;-68
2022/08/15 04:30:49;;;;;;;19.38;17.40;;;21.20;99.90;;;;;;5056123;28;20332;-69
2022/08/15 04:33:21;;;;;;;18.80;16.85;;;21.20;99.90;;;;;;5038454;28;20194;-70
2022/08/15 04:35:54;;;;;;;19.73;17.00;;;21.10;99.90;;;;;;5056027;28;20045;-69
2022/08/15 04:38:19;;;;;;;18.30;16.25;;;21.20;99.90;;;;;;5055683;28;20379;-69
2022/08/15 04:40:47;;;;;;;18.05;15.35;;;21.20;99.90;;;;;;5055792;28;20045;-71
2022/08/15 04:43:13;;;;;;;17.17;15.48;;;21.20;99.90;;;;;;5055837;28;20134;-67
2022/08/15 04:45:40;;;;;;;16.45;14.90;;;21.20;99.90;;;;;;5055844;28;20124;-70
2022/08/15 04:48:07;;;;;;;16.00;14.52;;;21.20;99.90;;;;;;5055795;28;20447;-70
2022/08/15 04:50:38;;;;;;;17.98;16.15;;;21.20;99.90;;;;;;5055657;28;20045;-72
2022/08/15 04:53:07;;;;;;;18.17;16.25;;;21.20;99.90;;;;;;5055556;28;20419;-71
2022/08/15 04:55:35;;;;;;;17.58;15.88;;;21.20;99.90;;;;;;5055615;28;20049;-70
2022/08/15 04:58:01;;;;;;;18.65;16.73;;;21.20;99.90;;;;;;5055584;28;20085;-70
2022/08/15 05:00:31;;;;;;;21.83;15.65;;;21.20;99.90;;;;;;5055620;28;20049;-69
2022/08/15 05:03:10;;;;;;;17.48;15.77;;;21.20;99.90;;;;;;5055498;28;20051;-69
2022/08/15 05:05:42;;;;;;;17.75;15.95;;;21.30;99.90;;;;;;5037767;28;20072;-71
2022/08/15 05:08:09;;;;;;;19.85;16.63;;;21.30;99.90;;;;;;5038154;28;20048;-67
2022/08/15 05:10:35;;;;;;;20.08;16.48;;;21.30;99.90;;;;;;5055145;28;20063;-70
2022/08/15 05:13:15;;;;;;;17.60;15.82;;;21.30;99.90;;;;;;5055388;28;20492;-71
2022/08/15 05:15:42;;;;;;;18.77;15.60;;;21.30;99.90;;;;;;5055820;28;20072;-69
2022/08/15 05:18:08;;;;;;;16.75;14.57;;;21.30;99.90;;;;;;5055024;28;20052;-70
2022/08/15 05:20:34;;;;;;;18.65;16.75;;;21.30;99.90;;;;;;5055114;28;20044;-68
2022/08/15 05:23:05;;;;;;;16.88;15.23;;;21.30;99.90;;;;;;5054670;28;20136;-68
2022/08/15 05:25:34;;;;;;;18.15;16.27;;;21.30;99.90;;;;;;5055139;28;20079;-69
2022/08/15 05:28:01;;;;;;;18.10;15.60;;;21.30;99.90;;;;;;5037401;28;20110;-67
2022/08/15 05:30:26;;;;;;;17.42;15.63;;;21.30;99.90;;;;;;5054807;28;20135;-68
2022/08/15 05:33:02;;;;;;;17.33;15.50;;;21.30;99.90;;;;;;5037681;28;20081;-68
2022/08/15 05:35:30;;;;;;;19.17;16.75;;;21.40;99.90;;;;;;5037422;28;20117;-70
2022/08/15 05:37:58;;;;;;;18.13;16.42;;;21.40;99.90;;;;;;5055189;28;20048;-68
2022/08/15 05:40:24;;;;;;;19.45;15.90;;;21.30;99.90;;;;;;5054862;28;20045;-67
2022/08/15 05:43:02;;;;;;;20.80;17.25;;;21.30;99.90;;;;;;5054419;28;20049;-71
2022/08/15 05:45:41;;;;;;;18.05;16.13;;;21.40;99.90;;;;;;5054720;28;20044;-68
2022/08/15 05:48:22;;;;;;;17.27;15.50;;;21.40;99.90;;;;;;5054885;28;20121;-70
2022/08/15 05:50:50;;;;;;;42.83;17.45;;;21.40;99.90;;;;;;5054767;28;20041;-68
2022/08/15 05:53:32;;;;;;;20.45;17.23;;;21.40;99.90;;;;;;5037136;28;20053;-68
2022/08/15 05:56:24;;;;;;;19.35;17.30;;;21.50;99.90;;;;;;5054861;28;20051;-69
2022/08/15 05:59:04;;;;;;;19.67;17.40;;;21.50;99.90;;;;;;5055004;28;20045;-71
2022/08/15 06:01:44;;;;;;;17.85;15.98;;;21.60;99.90;;;;;;5054648;28;20055;-70
2022/08/15 06:04:37;;;;;;;17.42;15.82;;;21.70;99.90;;;;;;5054800;28;20045;-71
2022/08/15 06:07:09;;;;;;;16.67;14.98;;;21.70;99.90;;;;;;5055020;28;20126;-67
2022/08/15 06:09:46;;;;;;;17.85;16.05;;;21.60;99.90;;;;;;5054435;28;20136;-68
2022/08/15 06:12:25;;;;;;;16.95;14.40;;;21.70;99.90;;;;;;5054515;28;20056;-68
2022/08/15 06:14:55;;;;;;;16.38;14.73;;;21.70;99.90;;;;;;5054767;28;20045;-70
2022/08/15 06:17:39;;;;;;;16.08;14.38;;;21.80;99.90;;;;;;5037012;28;20371;-69
2022/08/15 06:20:07;;;;;;;;;;;21.80;99.90;;;;;;5055052;28;20128;-71
2022/08/15 06:23:05;;;;;;;15.20;13.60;;;21.90;99.90;;;;;;5054591;28;19931;-70
2022/08/15 06:25:56;;;;;;;13.93;12.60;;;21.90;99.90;;;;;;5054371;28;20033;-71
2022/08/15 06:29:13;;;;;;;16.13;14.43;;;21.90;99.90;;;;;;5025748;28;20123;-71
2022/08/15 06:31:44;;;;;;;22.58;20.23;;;22.00;99.90;;;;;;5010304;28;20052;-69
2022/08/15 06:34:35;;;;;;;24.27;21.20;;;22.00;99.90;;;;;;5054204;28;20376;-68
2022/08/15 06:37:25;;;;;;;22.45;20.08;;;22.10;99.90;;;;;;5054288;28;20045;-70
2022/08/15 06:40:28;;;;;;;18.88;16.88;;;22.10;99.90;;;;;;5054277;28;20095;-71
2022/08/15 06:42:54;;;;;;;22.38;20.25;;;22.20;99.90;;;;;;5053925;28;20068;-67
2022/08/15 06:45:22;;;;;;;20.33;18.17;;;22.30;99.90;;;;;;5054276;28;20041;-68
2022/08/15 06:47:51;;;;;;;22.15;19.55;;;22.40;99.90;;;;;;5054179;28;20447;-69
2022/08/15 06:50:26;;;;;;;19.88;17.60;;;22.50;99.90;;;;;;5054087;28;20057;-71
2022/08/15 06:52:58;;;;;;;20.08;18.08;;;22.60;99.90;;;;;;5036848;28;20044;-70
2022/08/15 06:55:29;;;;;;;16.88;15.13;;;22.60;99.90;;;;;;5057713;28;20136;-69
2022/08/15 06:58:04;;;;;;;21.95;17.27;;;22.70;99.90;;;;;;5057889;28;20049;-67
2022/08/15 07:00:29;;;;;;;16.40;14.70;;;22.90;99.90;;;;;;5057932;28;20091;-69
2022/08/15 07:03:39;;;;;;;16.30;14.68;;;23.00;99.90;;;;;;5057707;28;20451;-69
2022/08/15 07:06:10;;;;;;;14.50;13.13;;;23.10;99.90;;;;;;4969218;28;20059;-69
2022/08/15 07:08:44;;;;;;;17.55;15.13;;;23.20;99.90;;;;;;5057626;28;20037;-70
2022/08/15 07:11:32;;;;;;;17.08;15.27;;;23.40;99.90;;;;;;5057759;28;20171;-69
2022/08/15 07:14:06;;;;;;;14.85;13.35;;;23.50;99.90;;;;;;5057643;28;20094;-69
2022/08/15 07:16:44;;;;;;;18.90;14.45;;;23.50;99.90;;;;;;5057302;28;20052;-69
2022/08/15 07:19:10;;;;;;;18.67;14.60;;;23.60;99.90;;;;;;5057265;28;20052;-70
2022/08/15 07:21:36;;;;;;;18.15;14.45;;;23.80;99.90;;;;;;5057384;28;20041;-71
2022/08/15 07:24:04;;;;;;;16.83;14.90;;;23.90;99.90;;;;;;5057504;28;20444;-68
2022/08/15 07:26:59;;;;;;;15.48;13.55;;;24.00;99.90;;;;;;5057466;28;20049;-68
2022/08/15 07:29:47;;;;;;;15.40;13.85;;;24.10;99.90;;;;;;5019414;28;20471;-69
2022/08/15 07:32:18;;;;;;;15.57;13.02;;;24.30;99.90;;;;;;5039645;28;20049;-70
2022/08/15 07:35:13;;;;;;;13.75;12.07;;;24.40;99.90;;;;;;5057110;28;20060;-69
2022/08/15 07:37:56;;;;;;;12.88;11.65;;;24.50;99.90;;;;;;5056933;28;20045;-68
2022/08/15 07:40:36;;;;;;;12.77;11.52;;;24.50;99.90;;;;;;5057189;28;20410;-70
2022/08/15 07:43:22;;;;;;;12.15;11.05;;;24.70;99.90;;;;;;5057033;28;20102;-71
2022/08/15 07:45:51;;;;;;;12.73;10.95;;;24.80;99.90;;;;;;5056981;28;20049;-72
2022/08/15 07:48:24;;;;;;;12.00;10.38;;;24.90;99.90;;;;;;5039598;28;20040;-68
2022/08/15 07:51:08;;;;;;;13.73;11.27;;;25.10;99.90;;;;;;5056861;28;20045;-69
2022/08/15 07:53:34;;;;;;;12.20;10.90;;;25.20;99.90;;;;;;5056844;28;20053;-70
2022/08/15 07:56:00;;;;;;;14.15;11.35;;;25.30;99.90;;;;;;5056776;28;20044;-71
2022/08/15 07:58:26;;;;;;;11.38;10.20;;;25.40;99.90;;;;;;5056747;28;20079;-70
2022/08/15 08:01:22;;;;;;;11.60;10.52;;;25.40;99.90;;;;;;5056455;28;20045;-69
2022/08/15 08:03:55;;;;;;;24.48;11.27;;;25.50;99.90;;;;;;5056519;28;20045;-70
2022/08/15 08:06:29;;;;;;;17.23;11.63;;;25.50;99.90;;;;;;5039081;28;20056;-70
2022/08/15 08:09:13;;;;;;;15.65;13.93;;;25.50;99.90;;;;;;5038764;28;20057;-68
2022/08/15 08:11:48;;;;;;;16.23;14.80;;;25.50;99.90;;;;;;5038962;28;20056;-70
2022/08/15 08:14:29;;;;;;;16.27;14.68;;;25.50;99.90;;;;;;5056362;28;20152;-70
2022/08/15 08:17:07;;;;;;;17.00;14.32;;;25.50;99.90;;;;;;5056249;28;20063;-71
2022/08/15 08:19:36;;;;;;;16.95;15.18;;;25.60;99.90;;;;;;5056164;28;20059;-68
2022/08/15 08:22:37;;;;;;;14.02;12.60;;;25.70;99.90;;;;;;5056277;28;20080;-70
2022/08/15 08:25:29;;;;;;;15.85;13.27;;;25.70;99.90;;;;;;5056430;28;20134;-73
2022/08/15 08:28:16;;;;;;;13.23;12.02;;;25.80;99.90;;;;;;5055967;28;20072;-72
2022/08/15 08:30:55;;;;;;;13.82;11.95;;;25.80;99.90;;;;;;5055934;28;20055;-71
2022/08/15 08:33:54;;;;;;;12.45;11.05;;;25.90;99.90;;;;;;5056200;28;20049;-73
2022/08/15 08:36:21;;;;;;;11.55;10.45;;;25.80;99.90;;;;;;5016606;28;20549;-70
2022/08/15 08:39:01;;;;;;;10.52;9.43;;;26.00;99.90;;;;;;5055964;28;20359;-69
2022/08/15 08:41:42;;;;;;;9.65;8.75;;;26.00;99.90;;;;;;5056016;28;20095;-70
2022/08/15 08:44:14;;;;;;;10.98;8.90;;;26.10;99.90;;;;;;5055806;28;20333;-71
2022/08/15 08:46:58;;;;;;;9.82;8.85;;;26.20;99.90;;;;;;5055720;28;20044;-69
2022/08/15 08:49:33;;;;;;;;;;;26.20;99.90;;;;;;5038767;28;20040;-70
2022/08/15 08:52:17;;;;;;;;;;;26.20;99.90;;;;;;5056067;28;19938;-69
2022/08/15 08:55:06;;;;;;;10.67;9.67;;;26.20;99.90;;;;;;5055674;28;20335;-69
2022/08/15 08:57:40;;;;;;;12.50;10.02;;;26.30;99.90;;;;;;5055383;28;20494;-70
2022/08/15 09:00:21;;;;;;;13.60;10.38;;;26.40;99.90;;;;;;5055551;28;20051;-69
2022/08/15 09:03:09;;;;;;;14.00;10.48;;;26.40;99.90;;;;;;5055613;28;20049;-72
2022/08/15 09:05:49;;;;;;;12.32;10.32;;;26.40;99.90;;;;;;5055366;28;20037;-73
2022/08/15 09:08:43;;;;;;;11.70;10.55;;;26.30;99.90;;;;;;5022156;28;20056;-69
2022/08/15 09:11:19;;;;;;;14.63;13.13;;;26.30;99.90;;;;;;5055096;28;20053;-72
2022/08/15 09:13:46;;;;;;;13.77;12.48;;;26.20;99.90;;;;;;5055117;28;20340;-72
2022/08/15 09:16:23;;;;;;;15.15;13.25;;;26.20;99.90;;;;;;5054390;28;20044;-71
2022/08/15 09:19:09;;;;;;;13.30;12.05;;;26.10;99.90;;;;;;5055237;28;20045;-69
2022/08/15 09:21:35;;;;;;;15.48;13.90;;;26.20;99.90;;;;;;5055204;28;20130;-69
2022/08/15 09:24:01;;;;;;;17.60;15.73;;;26.10;99.90;;;;;;5055210;28;20041;-71
2022/08/15 09:26:42;;;;;;;15.98;14.18;;;26.10;99.90;;;;;;5054845;28;20189;-71
2022/08/15 09:29:27;;;;;;;15.35;13.77;;;26.10;99.90;;;;;;5037426;28;20120;-70
2022/08/15 09:32:18;;;;;;;15.65;14.20;;;26.10;99.90;;;;;;5037444;28;20055;-72
2022/08/15 09:34:54;;;;;;;15.80;14.20;;;26.20;99.90;;;;;;5055070;28;20091;-71
2022/08/15 09:37:36;;;;;;;16.20;14.70;;;26.20;99.90;;;;;;5054982;28;20037;-71
2022/08/15 09:40:12;;;;;;;16.88;15.20;;;26.30;99.90;;;;;;5054503;28;20131;-71
2022/08/15 09:42:55;;;;;;;18.27;15.32;;;26.30;99.90;;;;;;5037238;28;20082;-69
2022/08/15 09:45:23;;;;;;;16.27;14.23;;;26.40;99.90;;;;;;5054869;28;20045;-72
2022/08/15 09:48:13;;;;;;;15.90;14.32;;;26.40;99.90;;;;;;5054982;28;20051;-72
2022/08/15 09:50:59;;;;;;;14.48;13.13;;;26.40;99.90;;;;;;5054889;28;20048;-70
2022/08/15 09:53:45;;;;;;;15.43;13.93;;;26.40;99.90;;;;;;5054896;28;20041;-69
2022/08/15 09:56:17;;;;;;;19.50;17.75;;;26.40;99.90;;;;;;5054003;28;20103;-69
2022/08/15 09:58:53;;;;;;;19.23;17.42;;;26.40;99.90;;;;;;5054768;28;20454;-70
2022/08/15 10:01:23;;;;;;;22.67;20.38;;;26.60;99.90;;;;;;5037193;28;20041;-69
2022/08/15 10:03:52;;;;;;;21.13;19.10;;;26.50;99.90;;;;;;5054492;28;20451;-71
2022/08/15 10:06:19;;;;;;;22.33;20.15;;;26.50;99.90;;;;;;5054626;28;20129;-71
2022/08/15 10:08:52;;;;;;;24.80;19.27;;;26.60;99.90;;;;;;5037065;28;20080;-72
2022/08/15 10:11:24;;;;;;;23.15;20.95;;;26.70;99.90;;;;;;5056367;28;20064;-70
2022/08/15 10:14:06;;;;;;;24.10;21.80;;;26.70;99.90;;;;;;5054104;28;20052;-72
2022/08/15 10:16:40;;;;;;;22.35;20.00;;;26.70;99.90;;;;;;5054315;28;20471;-68
2022/08/15 10:19:25;;;;;;;25.70;23.23;;;26.80;99.90;;;;;;5036870;28;20049;-69
2022/08/15 10:21:52;;;;;;;25.50;22.75;;;26.70;99.90;;;;;;5054725;28;20049;-71
2022/08/15 10:24:21;;;;;;;26.30;21.52;;;26.70;99.90;;;;;;5036894;28;20114;-71
2022/08/15 10:27:09;;;;;;;26.05;23.48;;;26.70;99.90;;;;;;5054627;28;20102;-69
2022/08/15 10:29:47;;;;;;;26.10;23.23;;;26.70;99.90;;;;;;5058499;28;20044;-73
2022/08/15 10:32:28;;;;;;;24.50;22.10;;;26.80;99.90;;;;;;5058477;28;20110;-72
2022/08/15 10:35:10;;;;;;;26.33;23.45;;;26.90;99.90;;;;;;5058287;28;20053;-71
2022/08/15 10:37:53;;;;;;;26.88;22.75;;;26.80;99.90;;;;;;5058188;28;20052;-69
2022/08/15 10:40:32;;;;;;;27.17;24.40;;;26.90;99.90;;;;;;5040721;28;20041;-70
2022/08/15 10:43:33;;;;;;;28.60;25.75;;;26.80;99.90;;;;;;5058041;28;20071;-70
2022/08/15 10:46:04;;;;;;;114.30;28.98;;;26.80;99.90;;;;;;5026353;28;20049;-71
2022/08/15 10:49:03;;;;;;;25.38;22.70;;;26.70;99.90;;;;;;5058121;28;20037;-70
2022/08/15 10:52:00;;;;;;;25.23;22.55;;;26.50;99.90;;;;;;5057107;28;20064;-72
2022/08/15 10:54:50;;;;;;;26.23;23.35;;;26.60;99.90;;;;;;5040667;28;20463;-72
2022/08/15 10:57:19;;;;;;;26.50;23.95;;;26.40;99.90;;;;;;5057755;28;20056;-69
2022/08/15 10:59:48;;;;;;;27.27;24.58;;;26.30;99.90;;;;;;5040045;28;20063;-72
2022/08/15 11:02:43;;;;;;;26.83;24.40;;;26.30;99.90;;;;;;5057619;28;20059;-71
2022/08/15 11:05:14;;;;;;;26.38;23.50;;;26.30;99.90;;;;;;5057797;28;20344;-69
2022/08/15 11:07:49;;;;;;;24.40;20.88;;;26.30;99.90;;;;;;5057955;28;20359;-73
2022/08/15 11:10:18;;;;;;;20.98;17.75;;;26.40;99.90;;;;;;5057151;28;20500;-71
2022/08/15 11:12:48;;;;;;;22.25;19.85;;;26.60;99.90;;;;;;5057476;28;20061;-68
2022/08/15 11:15:33;;;;;;;25.40;20.92;;;26.50;99.90;;;;;;5057337;28;20053;-71
2022/08/15 11:18:03;;;;;;;27.20;21.63;;;26.40;99.90;;;;;;5057489;28;20132;-70
2022/08/15 11:20:38;;;;;;;22.63;18.27;;;26.50;99.90;;;;;;5057488;28;20107;-72
2022/08/15 11:23:04;;;;;;;20.38;18.35;;;26.30;99.90;;;;;;5057306;28;20124;-71
2022/08/15 11:25:37;;;;;;;18.27;16.33;;;26.50;99.90;;;;;;5057128;28;20368;-71
2022/08/15 11:28:10;;;;;;;18.85;16.85;;;26.60;99.90;;;;;;5057486;28;20045;-70
2022/08/15 11:30:39;;;;;;;20.48;16.67;;;26.50;99.90;;;;;;5057187;28;20055;-71
2022/08/15 11:33:22;;;;;;;17.48;15.73;;;26.40;99.90;;;;;;5057048;28;20439;-73
2022/08/15 11:36:08;;;;;;;16.55;13.85;;;26.50;99.90;;;;;;5039780;28;20053;-71
2022/08/15 11:38:35;;;;;;;19.30;15.30;;;26.30;99.90;;;;;;5056840;28;20399;-74
2022/08/15 11:41:02;;;;;;;16.77;15.02;;;26.20;99.90;;;;;;5056481;28;20052;-71
2022/08/15 11:43:29;;;;;;;17.75;16.00;;;26.30;99.90;;;;;;5057031;28;20106;-72
2022/08/15 11:45:56;;;;;;;18.30;14.85;;;26.10;99.90;;;;;;5056894;28;20144;-71
2022/08/15 11:48:34;;;;;;;15.68;13.18;;;26.00;99.90;;;;;;5056991;28;20056;-70
2022/08/15 11:51:06;;;;;;;15.20;13.27;;;26.00;99.90;;;;;;5039283;28;20056;-71
2022/08/15 11:53:38;;;;;;;14.32;12.88;;;25.90;99.90;;;;;;5056821;28;20048;-71
2022/08/15 11:56:04;;;;;;;17.23;11.40;;;25.90;99.90;;;;;;5056756;28;20049;-72
2022/08/15 11:58:35;;;;;;;15.40;12.70;;;25.80;99.90;;;;;;5056463;28;20059;-73
2022/08/15 12:01:30;;;;;;;12.00;10.18;;;25.90;99.90;;;;;;5056641;28;20075;-70
2022/08/15 12:04:06;;;;;;;;;;;26.00;99.90;;;;;;5057149;28;20128;-69
2022/08/15 12:06:38;;;;;;;14.75;10.73;;;25.90;99.90;;;;;;5056307;28;19921;-71
2022/08/15 12:09:11;;;;;;;13.80;9.07;;;26.10;99.90;;;;;;5056277;28;20423;-70
2022/08/15 12:11:46;;;;;;;14.65;10.00;;;26.10;99.90;;;;;;5056281;28;20482;-72
2022/08/15 12:14:16;;;;;;;10.52;9.50;;;26.20;99.30;;;;;;5056552;28;20041;-69
2022/08/15 12:16:52;;;;;;;11.10;9.05;;;26.20;99.80;;;;;;5056409;28;20056;-71
2022/08/15 12:19:29;;;;;;;11.32;9.40;;;26.10;98.10;;;;;;5056350;28;20047;-69
2022/08/15 12:21:57;;;;;;;8.93;7.07;;;26.30;98.00;;;;;;5056393;28;20044;-70
2022/08/15 12:24:26;;;;;;;12.00;7.32;;;26.30;97.40;;;;;;5055795;28;20482;-73
2022/08/15 12:26:52;;;;;;;11.57;7.85;;;26.30;96.90;;;;;;5039115;28;20128;-70
2022/08/15 12:29:20;;;;;;;9.98;5.85;;;26.20;96.90;;;;;;5056021;28;20164;-69
2022/08/15 12:31:48;;;;;;;9.10;6.15;;;26.10;96.40;;;;;;5055965;28;20045;-71
2022/08/15 12:34:19;;;;;;;11.30;5.55;;;26.10;96.00;;;;;;5055863;28;20057;-71
2022/08/15 12:36:45;;;;;;;6.50;5.90;;;26.00;96.10;;;;;;5038347;28;20056;-69
2022/08/15 12:39:13;;;;;;;8.00;5.43;;;26.00;96.60;;;;;;5056051;28;20045;-71
2022/08/15 12:41:42;;;;;;;7.55;5.80;;;25.90;97.20;;;;;;5038427;28;20053;-71
2022/08/15 12:44:17;;;;;;;13.45;6.75;;;26.00;97.80;;;;;;5055928;28;20045;-71
2022/08/15 12:46:43;;;;;;;8.63;6.00;;;26.00;97.80;;;;;;5055751;28;20131;-69
2022/08/15 12:49:09;;;;;;;6.70;5.95;;;26.10;98.10;;;;;;5055663;28;20059;-73
2022/08/15 12:51:34;;;;;;;10.30;6.30;;;26.00;98.30;;;;;;5038019;28;20375;-72
2022/08/15 12:54:00;;;;;;;9.98;6.75;;;25.90;98.80;;;;;;5055801;28;20049;-71
2022/08/15 12:56:25;;;;;;;9.77;6.75;;;25.90;99.00;;;;;;5055698;28;20068;-71
2022/08/15 12:58:51;;;;;;;10.30;6.05;;;25.80;99.00;;;;;;5055866;28;20056;-72
2022/08/15 13:01:17;;;;;;;9.90;6.35;;;25.80;99.10;;;;;;5055539;28;20041;-69
2022/08/15 13:03:44;;;;;;;12.60;6.90;;;25.70;99.50;;;;;;5055457;28;20048;-71